sensor_id;sensor_type;location;lat;lon;timestamp;P1;durP1;ratioP1;P2;durP2;ratioP2
56670;SDS011;42545;50.054;8.306;2023-04-26T00:00:41;1.50;;;1.10;;
56670;SDS011;42545;50.054;8.306;2023-04-26T00:03:08;1.83;;;1.15;;
56670;SDS011;42545;50.054;8.306;2023-04-26T00:05:37;1.48;;;1.00;;
56670;SDS011;42545;50.054;8.306;2023-04-26T00:08:05;1.42;;;1.05;;
56670;SDS011;42545;50.054;8.306;2023-04-26T00:10:33;1.85;;;0.95;;
56670;SDS011;42545;50.054;8.306;2023-04-26T00:13:02;1.27;;;0.90;;
56670;SDS011;42545;50.054;8.306;2023-04-26T00:15:28;1.60;;;1.00;;
56670;SDS011;42545;50.054;8.306;2023-04-26T00:17:56;1.10;;;0.90;;
56670;SDS011;42545;50.054;8.306;2023-04-26T00:20:22;1.05;;;0.85;;
56670;SDS011;42545;50.054;8.306;2023-04-26T00:22:49;1.02;;;0.63;;
56670;SDS011;42545;50.054;8.306;2023-04-26T00:25:17;0.73;;;0.70;;
56670;SDS011;42545;50.054;8.306;2023-04-26T00:27:46;1.00;;;0.70;;
56670;SDS011;42545;50.054;8.306;2023-04-26T00:30:13;1.45;;;0.80;;
56670;SDS011;42545;50.054;8.306;2023-04-26T00:32:40;1.75;;;0.70;;
56670;SDS011;42545;50.054;8.306;2023-04-26T00:35:08;1.63;;;0.77;;
56670;SDS011;42545;50.054;8.306;2023-04-26T00:37:35;1.35;;;0.88;;
56670;SDS011;42545;50.054;8.306;2023-04-26T00:40:05;0.90;;;0.70;;
56670;SDS011;42545;50.054;8.306;2023-04-26T00:42:36;0.65;;;0.65;;
56670;SDS011;42545;50.054;8.306;2023-04-26T00:45:03;1.00;;;0.90;;
56670;SDS011;42545;50.054;8.306;2023-04-26T00:47:32;1.00;;;0.80;;
56670;SDS011;42545;50.054;8.306;2023-04-26T00:49:59;0.82;;;0.77;;
56670;SDS011;42545;50.054;8.306;2023-04-26T00:52:27;1.58;;;0.90;;
56670;SDS011;42545;50.054;8.306;2023-04-26T00:54:54;0.90;;;0.75;;
56670;SDS011;42545;50.054;8.306;2023-04-26T00:57:22;0.75;;;0.70;;
56670;SDS011;42545;50.054;8.306;2023-04-26T00:59:51;1.17;;;0.80;;
56670;SDS011;42545;50.054;8.306;2023-04-26T01:02:20;1.10;;;0.80;;
56670;SDS011;42545;50.054;8.306;2023-04-26T01:04:46;1.02;;;0.80;;
56670;SDS011;42545;50.054;8.306;2023-04-26T01:07:14;1.23;;;0.88;;
56670;SDS011;42545;50.054;8.306;2023-04-26T01:09:41;0.60;;;0.60;;
56670;SDS011;42545;50.054;8.306;2023-04-26T01:12:09;0.77;;;0.60;;
56670;SDS011;42545;50.054;8.306;2023-04-26T01:14:38;0.90;;;0.70;;
56670;SDS011;42545;50.054;8.306;2023-04-26T01:17:06;0.70;;;0.70;;
56670;SDS011;42545;50.054;8.306;2023-04-26T01:19:33;0.90;;;0.73;;
56670;SDS011;42545;50.054;8.306;2023-04-26T01:22:02;0.70;;;0.60;;
56670;SDS011;42545;50.054;8.306;2023-04-26T01:24:30;0.80;;;0.65;;
56670;SDS011;42545;50.054;8.306;2023-04-26T01:29:26;0.60;;;0.60;;
56670;SDS011;42545;50.054;8.306;2023-04-26T01:31:53;1.80;;;1.02;;
56670;SDS011;42545;50.054;8.306;2023-04-26T01:34:22;0.63;;;0.60;;
56670;SDS011;42545;50.054;8.306;2023-04-26T01:36:49;1.67;;;1.00;;
56670;SDS011;42545;50.054;8.306;2023-04-26T01:39:16;1.25;;;0.85;;
56670;SDS011;42545;50.054;8.306;2023-04-26T01:41:44;0.77;;;0.77;;
56670;SDS011;42545;50.054;8.306;2023-04-26T01:44:18;1.05;;;0.80;;
56670;SDS011;42545;50.054;8.306;2023-04-26T01:46:45;0.77;;;0.77;;
56670;SDS011;42545;50.054;8.306;2023-04-26T01:49:12;0.70;;;0.70;;
56670;SDS011;42545;50.054;8.306;2023-04-26T01:51:38;0.85;;;0.70;;
56670;SDS011;42545;50.054;8.306;2023-04-26T01:54:05;1.00;;;0.60;;
56670;SDS011;42545;50.054;8.306;2023-04-26T01:56:32;0.65;;;0.65;;
56670;SDS011;42545;50.054;8.306;2023-04-26T01:59:00;0.82;;;0.70;;
56670;SDS011;42545;50.054;8.306;2023-04-26T02:01:27;0.70;;;0.70;;
56670;SDS011;42545;50.054;8.306;2023-04-26T02:03:54;1.98;;;0.98;;
56670;SDS011;42545;50.054;8.306;2023-04-26T02:06:20;1.42;;;0.95;;
56670;SDS011;42545;50.054;8.306;2023-04-26T02:08:47;1.50;;;0.90;;
56670;SDS011;42545;50.054;8.306;2023-04-26T02:11:15;1.13;;;0.90;;
56670;SDS011;42545;50.054;8.306;2023-04-26T02:13:42;0.82;;;0.75;;
56670;SDS011;42545;50.054;8.306;2023-04-26T02:16:10;0.60;;;0.60;;
56670;SDS011;42545;50.054;8.306;2023-04-26T02:18:36;0.60;;;0.60;;
56670;SDS011;42545;50.054;8.306;2023-04-26T02:21:06;1.05;;;0.68;;
56670;SDS011;42545;50.054;8.306;2023-04-26T02:26:02;0.73;;;0.73;;
56670;SDS011;42545;50.054;8.306;2023-04-26T02:28:29;0.80;;;0.60;;
56670;SDS011;42545;50.054;8.306;2023-04-26T02:30:56;0.80;;;0.70;;
56670;SDS011;42545;50.054;8.306;2023-04-26T02:33:24;0.90;;;0.80;;
56670;SDS011;42545;50.054;8.306;2023-04-26T02:35:51;0.60;;;0.60;;
56670;SDS011;42545;50.054;8.306;2023-04-26T02:38:18;0.50;;;0.50;;
56670;SDS011;42545;50.054;8.306;2023-04-26T02:40:45;0.50;;;0.50;;
56670;SDS011;42545;50.054;8.306;2023-04-26T02:43:13;0.60;;;0.60;;
56670;SDS011;42545;50.054;8.306;2023-04-26T02:45:40;0.50;;;0.50;;
56670;SDS011;42545;50.054;8.306;2023-04-26T02:48:08;0.73;;;0.60;;
56670;SDS011;42545;50.054;8.306;2023-04-26T02:50:36;0.68;;;0.60;;
56670;SDS011;42545;50.054;8.306;2023-04-26T02:53:03;0.60;;;0.57;;
56670;SDS011;42545;50.054;8.306;2023-04-26T02:55:30;1.00;;;0.60;;
56670;SDS011;42545;50.054;8.306;2023-04-26T02:57:57;0.90;;;0.80;;
56670;SDS011;42545;50.054;8.306;2023-04-26T03:00:23;0.52;;;0.52;;
56670;SDS011;42545;50.054;8.306;2023-04-26T03:02:51;0.60;;;0.60;;
56670;SDS011;42545;50.054;8.306;2023-04-26T03:05:18;0.60;;;0.60;;
56670;SDS011;42545;50.054;8.306;2023-04-26T03:07:47;0.50;;;0.50;;
56670;SDS011;42545;50.054;8.306;2023-04-26T03:10:13;0.40;;;0.40;;
56670;SDS011;42545;50.054;8.306;2023-04-26T03:12:40;0.80;;;0.60;;
56670;SDS011;42545;50.054;8.306;2023-04-26T03:15:07;0.60;;;0.60;;
56670;SDS011;42545;50.054;8.306;2023-04-26T03:17:34;0.40;;;0.40;;
56670;SDS011;42545;50.054;8.306;2023-04-26T03:20:01;0.40;;;0.40;;
56670;SDS011;42545;50.054;8.306;2023-04-26T03:22:29;0.50;;;0.43;;
56670;SDS011;42545;50.054;8.306;2023-04-26T03:24:57;0.40;;;0.40;;
56670;SDS011;42545;50.054;8.306;2023-04-26T03:27:24;0.45;;;0.45;;
56670;SDS011;42545;50.054;8.306;2023-04-26T03:29:51;0.47;;;0.47;;
56670;SDS011;42545;50.054;8.306;2023-04-26T03:32:17;0.40;;;0.40;;
56670;SDS011;42545;50.054;8.306;2023-04-26T03:34:44;0.60;;;0.43;;
56670;SDS011;42545;50.054;8.306;2023-04-26T03:37:13;0.93;;;0.65;;
56670;SDS011;42545;50.054;8.306;2023-04-26T03:39:40;0.45;;;0.45;;
56670;SDS011;42545;50.054;8.306;2023-04-26T03:42:08;0.50;;;0.50;;
56670;SDS011;42545;50.054;8.306;2023-04-26T03:44:35;1.15;;;0.60;;
56670;SDS011;42545;50.054;8.306;2023-04-26T03:47:01;0.52;;;0.47;;
56670;SDS011;42545;50.054;8.306;2023-04-26T03:49:29;0.60;;;0.60;;
56670;SDS011;42545;50.054;8.306;2023-04-26T03:51:56;0.70;;;0.70;;
56670;SDS011;42545;50.054;8.306;2023-04-26T03:54:22;0.80;;;0.60;;
56670;SDS011;42545;50.054;8.306;2023-04-26T03:56:49;0.50;;;0.50;;
56670;SDS011;42545;50.054;8.306;2023-04-26T03:59:18;1.40;;;1.08;;
56670;SDS011;42545;50.054;8.306;2023-04-26T04:01:45;0.85;;;0.60;;
56670;SDS011;42545;50.054;8.306;2023-04-26T04:04:12;0.60;;;0.60;;
56670;SDS011;42545;50.054;8.306;2023-04-26T04:06:41;0.60;;;0.40;;
56670;SDS011;42545;50.054;8.306;2023-04-26T04:09:08;0.80;;;0.73;;
56670;SDS011;42545;50.054;8.306;2023-04-26T04:11:34;0.43;;;0.43;;
56670;SDS011;42545;50.054;8.306;2023-04-26T04:14:01;0.65;;;0.60;;
56670;SDS011;42545;50.054;8.306;2023-04-26T04:16:29;1.05;;;0.60;;
56670;SDS011;42545;50.054;8.306;2023-04-26T04:18:56;0.57;;;0.57;;
56670;SDS011;42545;50.054;8.306;2023-04-26T04:21:24;0.50;;;0.50;;
56670;SDS011;42545;50.054;8.306;2023-04-26T04:23:52;0.52;;;0.47;;
56670;SDS011;42545;50.054;8.306;2023-04-26T04:26:19;0.50;;;0.50;;
56670;SDS011;42545;50.054;8.306;2023-04-26T04:28:46;0.73;;;0.50;;
56670;SDS011;42545;50.054;8.306;2023-04-26T04:31:13;0.47;;;0.40;;
56670;SDS011;42545;50.054;8.306;2023-04-26T04:33:42;1.08;;;0.38;;
56670;SDS011;42545;50.054;8.306;2023-04-26T04:36:09;2.85;;;1.50;;
56670;SDS011;42545;50.054;8.306;2023-04-26T04:38:36;4.15;;;1.48;;
56670;SDS011;42545;50.054;8.306;2023-04-26T04:41:03;1.33;;;1.10;;
56670;SDS011;42545;50.054;8.306;2023-04-26T04:43:30;1.92;;;1.15;;
56670;SDS011;42545;50.054;8.306;2023-04-26T04:45:56;2.40;;;1.45;;
56670;SDS011;42545;50.054;8.306;2023-04-26T04:48:23;1.70;;;1.30;;
56670;SDS011;42545;50.054;8.306;2023-04-26T04:50:51;4.78;;;2.40;;
56670;SDS011;42545;50.054;8.306;2023-04-26T04:53:18;3.00;;;1.67;;
56670;SDS011;42545;50.054;8.306;2023-04-26T04:55:44;2.75;;;1.70;;
56670;SDS011;42545;50.054;8.306;2023-04-26T04:58:13;4.00;;;1.60;;
56670;SDS011;42545;50.054;8.306;2023-04-26T05:00:39;2.72;;;1.73;;
56670;SDS011;42545;50.054;8.306;2023-04-26T05:03:07;1.98;;;1.48;;
56670;SDS011;42545;50.054;8.306;2023-04-26T05:05:35;3.45;;;2.03;;
56670;SDS011;42545;50.054;8.306;2023-04-26T05:08:03;3.15;;;1.55;;
56670;SDS011;42545;50.054;8.306;2023-04-26T05:10:31;3.00;;;1.52;;
56670;SDS011;42545;50.054;8.306;2023-04-26T05:12:59;3.05;;;1.55;;
56670;SDS011;42545;50.054;8.306;2023-04-26T05:15:25;2.40;;;1.70;;
56670;SDS011;42545;50.054;8.306;2023-04-26T05:17:53;2.90;;;1.70;;
56670;SDS011;42545;50.054;8.306;2023-04-26T05:20:20;1.50;;;1.40;;
56670;SDS011;42545;50.054;8.306;2023-04-26T05:22:46;2.35;;;1.65;;
56670;SDS011;42545;50.054;8.306;2023-04-26T05:25:14;3.88;;;1.60;;
56670;SDS011;42545;50.054;8.306;2023-04-26T05:27:42;2.35;;;1.25;;
56670;SDS011;42545;50.054;8.306;2023-04-26T05:30:10;3.53;;;2.20;;
56670;SDS011;42545;50.054;8.306;2023-04-26T05:32:38;8.95;;;3.80;;
56670;SDS011;42545;50.054;8.306;2023-04-26T05:35:05;5.72;;;2.50;;
56670;SDS011;42545;50.054;8.306;2023-04-26T05:37:33;4.32;;;2.20;;
56670;SDS011;42545;50.054;8.306;2023-04-26T05:40:00;4.25;;;2.50;;
56670;SDS011;42545;50.054;8.306;2023-04-26T05:42:28;3.45;;;2.10;;
56670;SDS011;42545;50.054;8.306;2023-04-26T05:44:55;2.10;;;1.83;;
56670;SDS011;42545;50.054;8.306;2023-04-26T05:47:23;2.78;;;1.95;;
56670;SDS011;42545;50.054;8.306;2023-04-26T05:49:50;2.92;;;1.67;;
56670;SDS011;42545;50.054;8.306;2023-04-26T05:52:17;3.35;;;1.80;;
56670;SDS011;42545;50.054;8.306;2023-04-26T05:54:44;2.15;;;1.75;;
56670;SDS011;42545;50.054;8.306;2023-04-26T05:57:10;3.47;;;1.88;;
56670;SDS011;42545;50.054;8.306;2023-04-26T05:59:39;2.60;;;1.40;;
56670;SDS011;42545;50.054;8.306;2023-04-26T06:02:05;2.90;;;1.38;;
56670;SDS011;42545;50.054;8.306;2023-04-26T06:04:34;3.33;;;1.90;;
56670;SDS011;42545;50.054;8.306;2023-04-26T06:07:00;3.22;;;2.08;;
56670;SDS011;42545;50.054;8.306;2023-04-26T06:09:30;3.53;;;1.85;;
56670;SDS011;42545;50.054;8.306;2023-04-26T06:11:57;3.35;;;1.65;;
56670;SDS011;42545;50.054;8.306;2023-04-26T06:14:24;2.58;;;1.65;;
56670;SDS011;42545;50.054;8.306;2023-04-26T06:16:59;1.98;;;1.35;;
56670;SDS011;42545;50.054;8.306;2023-04-26T06:19:27;2.83;;;1.67;;
56670;SDS011;42545;50.054;8.306;2023-04-26T06:21:53;4.55;;;1.90;;
56670;SDS011;42545;50.054;8.306;2023-04-26T06:24:21;3.72;;;1.77;;
56670;SDS011;42545;50.054;8.306;2023-04-26T06:26:48;2.95;;;1.50;;
56670;SDS011;42545;50.054;8.306;2023-04-26T06:29:15;3.55;;;2.17;;
56670;SDS011;42545;50.054;8.306;2023-04-26T06:31:43;2.53;;;1.50;;
56670;SDS011;42545;50.054;8.306;2023-04-26T06:34:11;3.53;;;1.50;;
56670;SDS011;42545;50.054;8.306;2023-04-26T06:36:38;2.75;;;1.50;;
56670;SDS011;42545;50.054;8.306;2023-04-26T06:39:04;2.63;;;1.35;;
56670;SDS011;42545;50.054;8.306;2023-04-26T06:41:31;2.00;;;1.35;;
56670;SDS011;42545;50.054;8.306;2023-04-26T06:43:58;2.60;;;1.80;;
56670;SDS011;42545;50.054;8.306;2023-04-26T06:46:25;1.33;;;1.08;;
56670;SDS011;42545;50.054;8.306;2023-04-26T06:48:53;1.83;;;1.40;;
56670;SDS011;42545;50.054;8.306;2023-04-26T06:51:22;3.50;;;1.98;;
56670;SDS011;42545;50.054;8.306;2023-04-26T06:53:49;2.95;;;1.30;;
56670;SDS011;42545;50.054;8.306;2023-04-26T06:56:16;2.25;;;1.42;;
56670;SDS011;42545;50.054;8.306;2023-04-26T06:58:56;4.90;;;1.80;;
56670;SDS011;42545;50.054;8.306;2023-04-26T07:01:23;4.95;;;2.10;;
56670;SDS011;42545;50.054;8.306;2023-04-26T07:03:50;3.05;;;1.58;;
56670;SDS011;42545;50.054;8.306;2023-04-26T07:06:17;7.82;;;2.00;;
56670;SDS011;42545;50.054;8.306;2023-04-26T07:08:47;4.78;;;1.92;;
56670;SDS011;42545;50.054;8.306;2023-04-26T07:13:43;4.00;;;1.48;;
56670;SDS011;42545;50.054;8.306;2023-04-26T07:16:10;3.63;;;1.50;;
56670;SDS011;42545;50.054;8.306;2023-04-26T07:18:37;2.38;;;1.45;;
56670;SDS011;42545;50.054;8.306;2023-04-26T07:21:05;7.85;;;1.88;;
56670;SDS011;42545;50.054;8.306;2023-04-26T07:23:32;5.20;;;1.92;;
56670;SDS011;42545;50.054;8.306;2023-04-26T07:25:59;5.45;;;2.00;;
56670;SDS011;42545;50.054;8.306;2023-04-26T07:28:28;3.78;;;1.50;;
56670;SDS011;42545;50.054;8.306;2023-04-26T07:30:55;3.70;;;1.60;;
56670;SDS011;42545;50.054;8.306;2023-04-26T07:33:22;3.15;;;1.40;;
56670;SDS011;42545;50.054;8.306;2023-04-26T07:35:52;2.78;;;1.50;;
56670;SDS011;42545;50.054;8.306;2023-04-26T07:38:19;2.47;;;1.30;;
56670;SDS011;42545;50.054;8.306;2023-04-26T07:40:46;2.17;;;1.50;;
56670;SDS011;42545;50.054;8.306;2023-04-26T07:43:14;5.55;;;2.25;;
56670;SDS011;42545;50.054;8.306;2023-04-26T07:45:41;2.75;;;1.60;;
56670;SDS011;42545;50.054;8.306;2023-04-26T07:48:08;3.33;;;1.58;;
56670;SDS011;42545;50.054;8.306;2023-04-26T07:50:34;3.35;;;1.38;;
56670;SDS011;42545;50.054;8.306;2023-04-26T07:53:02;3.00;;;1.35;;
56670;SDS011;42545;50.054;8.306;2023-04-26T07:55:30;2.55;;;1.30;;
56670;SDS011;42545;50.054;8.306;2023-04-26T07:57:57;6.40;;;1.77;;
56670;SDS011;42545;50.054;8.306;2023-04-26T08:00:25;3.20;;;1.80;;
56670;SDS011;42545;50.054;8.306;2023-04-26T08:05:20;7.18;;;2.47;;
56670;SDS011;42545;50.054;8.306;2023-04-26T08:07:46;3.38;;;1.88;;
56670;SDS011;42545;50.054;8.306;2023-04-26T08:10:13;5.50;;;1.98;;
56670;SDS011;42545;50.054;8.306;2023-04-26T08:12:40;3.90;;;1.80;;
56670;SDS011;42545;50.054;8.306;2023-04-26T08:15:07;5.10;;;1.88;;
56670;SDS011;42545;50.054;8.306;2023-04-26T08:17:37;3.58;;;1.90;;
56670;SDS011;42545;50.054;8.306;2023-04-26T08:20:04;2.58;;;1.42;;
56670;SDS011;42545;50.054;8.306;2023-04-26T08:22:33;3.35;;;1.38;;
56670;SDS011;42545;50.054;8.306;2023-04-26T08:25:00;3.03;;;1.40;;
56670;SDS011;42545;50.054;8.306;2023-04-26T08:27:27;4.75;;;1.60;;
56670;SDS011;42545;50.054;8.306;2023-04-26T08:29:53;6.95;;;1.75;;
56670;SDS011;42545;50.054;8.306;2023-04-26T08:32:20;4.07;;;1.50;;
56670;SDS011;42545;50.054;8.306;2023-04-26T08:34:48;2.30;;;1.42;;
56670;SDS011;42545;50.054;8.306;2023-04-26T08:37:15;6.25;;;1.90;;
56670;SDS011;42545;50.054;8.306;2023-04-26T08:39:41;7.88;;;2.35;;
56670;SDS011;42545;50.054;8.306;2023-04-26T08:42:11;5.05;;;1.70;;
56670;SDS011;42545;50.054;8.306;2023-04-26T08:44:40;2.88;;;1.50;;
56670;SDS011;42545;50.054;8.306;2023-04-26T08:47:09;2.45;;;1.48;;
56670;SDS011;42545;50.054;8.306;2023-04-26T08:49:41;2.58;;;1.15;;
56670;SDS011;42545;50.054;8.306;2023-04-26T08:54:41;3.38;;;1.25;;
56670;SDS011;42545;50.054;8.306;2023-04-26T08:57:08;4.38;;;1.50;;
56670;SDS011;42545;50.054;8.306;2023-04-26T08:59:35;2.58;;;1.65;;
56670;SDS011;42545;50.054;8.306;2023-04-26T09:02:03;1.60;;;1.10;;
56670;SDS011;42545;50.054;8.306;2023-04-26T09:04:31;2.85;;;1.45;;
56670;SDS011;42545;50.054;8.306;2023-04-26T09:06:58;5.25;;;2.58;;
56670;SDS011;42545;50.054;8.306;2023-04-26T09:09:28;4.30;;;1.70;;
56670;SDS011;42545;50.054;8.306;2023-04-26T09:11:59;2.03;;;1.30;;
56670;SDS011;42545;50.054;8.306;2023-04-26T09:14:27;3.38;;;1.67;;
56670;SDS011;42545;50.054;8.306;2023-04-26T09:16:56;2.70;;;1.40;;
56670;SDS011;42545;50.054;8.306;2023-04-26T09:19:33;2.30;;;1.50;;
56670;SDS011;42545;50.054;8.306;2023-04-26T09:22:01;5.68;;;2.05;;
56670;SDS011;42545;50.054;8.306;2023-04-26T09:24:29;5.22;;;1.90;;
56670;SDS011;42545;50.054;8.306;2023-04-26T09:27:11;4.95;;;1.60;;
56670;SDS011;42545;50.054;8.306;2023-04-26T09:29:38;4.03;;;1.95;;
56670;SDS011;42545;50.054;8.306;2023-04-26T09:32:04;2.88;;;1.63;;
56670;SDS011;42545;50.054;8.306;2023-04-26T09:34:34;6.50;;;2.15;;
56670;SDS011;42545;50.054;8.306;2023-04-26T09:37:10;5.95;;;1.58;;
56670;SDS011;42545;50.054;8.306;2023-04-26T09:39:40;3.15;;;1.48;;
56670;SDS011;42545;50.054;8.306;2023-04-26T09:42:08;2.58;;;1.23;;
56670;SDS011;42545;50.054;8.306;2023-04-26T09:44:36;4.07;;;1.75;;
56670;SDS011;42545;50.054;8.306;2023-04-26T09:47:04;4.47;;;1.63;;
56670;SDS011;42545;50.054;8.306;2023-04-26T09:49:41;2.13;;;1.47;;
56670;SDS011;42545;50.054;8.306;2023-04-26T09:52:09;3.67;;;1.65;;
56670;SDS011;42545;50.054;8.306;2023-04-26T09:54:44;5.97;;;1.42;;
56670;SDS011;42545;50.054;8.306;2023-04-26T09:57:16;4.20;;;1.60;;
56670;SDS011;42545;50.054;8.306;2023-04-26T09:59:49;3.40;;;1.40;;
56670;SDS011;42545;50.054;8.306;2023-04-26T10:02:18;7.47;;;1.85;;
56670;SDS011;42545;50.054;8.306;2023-04-26T10:04:47;3.83;;;1.88;;
56670;SDS011;42545;50.054;8.306;2023-04-26T10:07:16;3.97;;;1.40;;
56670;SDS011;42545;50.054;8.306;2023-04-26T10:09:46;2.63;;;1.23;;
56670;SDS011;42545;50.054;8.306;2023-04-26T10:12:14;2.28;;;1.20;;
56670;SDS011;42545;50.054;8.306;2023-04-26T10:14:42;1.83;;;1.05;;
56670;SDS011;42545;50.054;8.306;2023-04-26T10:17:11;5.05;;;1.65;;
56670;SDS011;42545;50.054;8.306;2023-04-26T10:19:39;2.63;;;1.45;;
56670;SDS011;42545;50.054;8.306;2023-04-26T10:22:11;5.50;;;1.30;;
56670;SDS011;42545;50.054;8.306;2023-04-26T10:24:42;3.38;;;1.60;;
56670;SDS011;42545;50.054;8.306;2023-04-26T10:27:11;3.47;;;1.40;;
56670;SDS011;42545;50.054;8.306;2023-04-26T10:32:31;2.47;;;1.40;;
56670;SDS011;42545;50.054;8.306;2023-04-26T10:35:08;1.80;;;1.00;;
56670;SDS011;42545;50.054;8.306;2023-04-26T10:37:35;2.17;;;1.15;;
56670;SDS011;42545;50.054;8.306;2023-04-26T10:40:25;2.13;;;1.42;;
56670;SDS011;42545;50.054;8.306;2023-04-26T10:45:54;2.55;;;1.40;;
56670;SDS011;42545;50.054;8.306;2023-04-26T10:48:23;4.38;;;1.60;;
56670;SDS011;42545;50.054;8.306;2023-04-26T10:51:06;8.15;;;2.13;;
56670;SDS011;42545;50.054;8.306;2023-04-26T10:53:56;1.80;;;1.30;;
56670;SDS011;42545;50.054;8.306;2023-04-26T10:59:20;7.80;;;2.50;;
56670;SDS011;42545;50.054;8.306;2023-04-26T11:01:46;3.47;;;1.50;;
56670;SDS011;42545;50.054;8.306;2023-04-26T11:04:13;2.33;;;1.30;;
56670;SDS011;42545;50.054;8.306;2023-04-26T11:06:47;4.72;;;1.90;;
56670;SDS011;42545;50.054;8.306;2023-04-26T11:12:02;3.75;;;1.40;;
56670;SDS011;42545;50.054;8.306;2023-04-26T11:14:31;3.78;;;1.63;;
56670;SDS011;42545;50.054;8.306;2023-04-26T11:17:00;2.10;;;1.40;;
56670;SDS011;42545;50.054;8.306;2023-04-26T11:19:29;9.48;;;1.95;;
56670;SDS011;42545;50.054;8.306;2023-04-26T11:21:55;2.47;;;1.20;;
56670;SDS011;42545;50.054;8.306;2023-04-26T11:24:25;4.25;;;1.88;;
56670;SDS011;42545;50.054;8.306;2023-04-26T11:26:52;2.88;;;1.70;;
56670;SDS011;42545;50.054;8.306;2023-04-26T11:29:19;5.68;;;1.95;;
56670;SDS011;42545;50.054;8.306;2023-04-26T11:31:54;5.68;;;1.80;;
56670;SDS011;42545;50.054;8.306;2023-04-26T11:34:22;6.05;;;1.90;;
56670;SDS011;42545;50.054;8.306;2023-04-26T11:36:57;6.05;;;3.38;;
56670;SDS011;42545;50.054;8.306;2023-04-26T11:39:24;3.03;;;1.42;;
56670;SDS011;42545;50.054;8.306;2023-04-26T11:41:55;4.90;;;1.92;;
56670;SDS011;42545;50.054;8.306;2023-04-26T11:44:29;2.03;;;1.40;;
56670;SDS011;42545;50.054;8.306;2023-04-26T11:46:58;6.43;;;1.60;;
56670;SDS011;42545;50.054;8.306;2023-04-26T11:49:25;5.88;;;1.40;;
56670;SDS011;42545;50.054;8.306;2023-04-26T11:51:53;4.93;;;1.60;;
56670;SDS011;42545;50.054;8.306;2023-04-26T11:54:26;2.08;;;1.20;;
56670;SDS011;42545;50.054;8.306;2023-04-26T11:56:54;3.97;;;1.88;;
56670;SDS011;42545;50.054;8.306;2023-04-26T11:59:25;5.90;;;1.92;;
56670;SDS011;42545;50.054;8.306;2023-04-26T12:01:53;3.00;;;2.03;;
56670;SDS011;42545;50.054;8.306;2023-04-26T12:04:27;4.35;;;1.30;;
56670;SDS011;42545;50.054;8.306;2023-04-26T12:06:54;4.65;;;1.50;;
56670;SDS011;42545;50.054;8.306;2023-04-26T12:09:22;1.83;;;1.35;;
56670;SDS011;42545;50.054;8.306;2023-04-26T12:11:52;2.80;;;1.23;;
56670;SDS011;42545;50.054;8.306;2023-04-26T12:14:21;2.67;;;1.23;;
56670;SDS011;42545;50.054;8.306;2023-04-26T12:16:48;3.53;;;1.88;;
56670;SDS011;42545;50.054;8.306;2023-04-26T12:19:15;2.40;;;1.20;;
56670;SDS011;42545;50.054;8.306;2023-04-26T12:21:45;3.80;;;1.70;;
56670;SDS011;42545;50.054;8.306;2023-04-26T12:24:21;3.47;;;1.48;;
56670;SDS011;42545;50.054;8.306;2023-04-26T12:26:49;5.63;;;1.48;;
56670;SDS011;42545;50.054;8.306;2023-04-26T12:29:17;2.55;;;1.00;;
56670;SDS011;42545;50.054;8.306;2023-04-26T12:31:45;4.18;;;1.65;;
56670;SDS011;42545;50.054;8.306;2023-04-26T12:34:13;2.75;;;1.63;;
56670;SDS011;42545;50.054;8.306;2023-04-26T12:36:39;2.72;;;1.60;;
56670;SDS011;42545;50.054;8.306;2023-04-26T12:39:08;3.95;;;2.00;;
56670;SDS011;42545;50.054;8.306;2023-04-26T12:44:05;2.83;;;1.50;;
56670;SDS011;42545;50.054;8.306;2023-04-26T12:46:32;3.20;;;1.52;;
56670;SDS011;42545;50.054;8.306;2023-04-26T12:48:59;3.22;;;1.60;;
56670;SDS011;42545;50.054;8.306;2023-04-26T12:51:25;2.95;;;1.30;;
56670;SDS011;42545;50.054;8.306;2023-04-26T12:53:52;1.95;;;1.25;;
56670;SDS011;42545;50.054;8.306;2023-04-26T12:56:20;3.10;;;1.40;;
56670;SDS011;42545;50.054;8.306;2023-04-26T12:58:47;5.75;;;2.53;;
56670;SDS011;42545;50.054;8.306;2023-04-26T13:01:14;5.57;;;1.70;;
56670;SDS011;42545;50.054;8.306;2023-04-26T13:03:41;5.32;;;1.88;;
56670;SDS011;42545;50.054;8.306;2023-04-26T13:06:08;3.90;;;1.73;;
56670;SDS011;42545;50.054;8.306;2023-04-26T13:08:35;6.43;;;1.88;;
56670;SDS011;42545;50.054;8.306;2023-04-26T13:11:02;5.40;;;2.00;;
56670;SDS011;42545;50.054;8.306;2023-04-26T13:13:30;6.70;;;1.80;;
56670;SDS011;42545;50.054;8.306;2023-04-26T13:15:57;4.28;;;1.60;;
56670;SDS011;42545;50.054;8.306;2023-04-26T13:18:23;2.95;;;1.30;;
56670;SDS011;42545;50.054;8.306;2023-04-26T13:20:50;4.05;;;1.33;;
56670;SDS011;42545;50.054;8.306;2023-04-26T13:23:17;2.40;;;1.05;;
56670;SDS011;42545;50.054;8.306;2023-04-26T13:25:43;8.80;;;2.13;;
56670;SDS011;42545;50.054;8.306;2023-04-26T13:28:10;2.90;;;1.35;;
56670;SDS011;42545;50.054;8.306;2023-04-26T13:30:39;3.05;;;1.58;;
56670;SDS011;42545;50.054;8.306;2023-04-26T13:33:05;4.75;;;1.98;;
56670;SDS011;42545;50.054;8.306;2023-04-26T13:35:32;1.75;;;1.35;;
56670;SDS011;42545;50.054;8.306;2023-04-26T13:37:58;4.22;;;1.80;;
56670;SDS011;42545;50.054;8.306;2023-04-26T13:40:25;4.63;;;1.40;;
56670;SDS011;42545;50.054;8.306;2023-04-26T13:42:52;2.13;;;1.27;;
56670;SDS011;42545;50.054;8.306;2023-04-26T13:45:19;2.92;;;1.35;;
56670;SDS011;42545;50.054;8.306;2023-04-26T13:47:47;1.92;;;1.15;;
56670;SDS011;42545;50.054;8.306;2023-04-26T13:50:13;2.40;;;1.33;;
56670;SDS011;42545;50.054;8.306;2023-04-26T13:52:40;1.63;;;1.10;;
56670;SDS011;42545;50.054;8.306;2023-04-26T13:55:07;1.83;;;0.90;;
56670;SDS011;42545;50.054;8.306;2023-04-26T13:57:35;3.00;;;1.35;;
56670;SDS011;42545;50.054;8.306;2023-04-26T14:00:01;7.15;;;1.88;;
56670;SDS011;42545;50.054;8.306;2023-04-26T14:02:29;6.97;;;2.20;;
56670;SDS011;42545;50.054;8.306;2023-04-26T14:04:57;3.55;;;1.60;;
56670;SDS011;42545;50.054;8.306;2023-04-26T14:07:24;4.13;;;1.63;;
56670;SDS011;42545;50.054;8.306;2023-04-26T14:09:51;3.20;;;1.38;;
56670;SDS011;42545;50.054;8.306;2023-04-26T14:12:18;1.95;;;1.40;;
56670;SDS011;42545;50.054;8.306;2023-04-26T14:14:44;1.15;;;1.05;;
56670;SDS011;42545;50.054;8.306;2023-04-26T14:17:11;2.28;;;1.10;;
56670;SDS011;42545;50.054;8.306;2023-04-26T14:19:40;3.72;;;1.75;;
56670;SDS011;42545;50.054;8.306;2023-04-26T14:22:08;1.88;;;1.30;;
56670;SDS011;42545;50.054;8.306;2023-04-26T14:24:36;2.08;;;1.20;;
56670;SDS011;42545;50.054;8.306;2023-04-26T14:27:03;4.00;;;1.90;;
56670;SDS011;42545;50.054;8.306;2023-04-26T14:29:30;1.80;;;1.30;;
56670;SDS011;42545;50.054;8.306;2023-04-26T14:31:59;7.03;;;2.05;;
56670;SDS011;42545;50.054;8.306;2023-04-26T14:34:27;4.13;;;1.50;;
56670;SDS011;42545;50.054;8.306;2023-04-26T14:36:53;5.35;;;2.10;;
56670;SDS011;42545;50.054;8.306;2023-04-26T14:39:26;3.72;;;1.70;;
56670;SDS011;42545;50.054;8.306;2023-04-26T14:41:54;2.35;;;1.13;;
56670;SDS011;42545;50.054;8.306;2023-04-26T14:44:21;2.25;;;1.20;;
56670;SDS011;42545;50.054;8.306;2023-04-26T14:46:48;2.60;;;1.10;;
56670;SDS011;42545;50.054;8.306;2023-04-26T14:49:15;1.90;;;1.10;;
56670;SDS011;42545;50.054;8.306;2023-04-26T14:51:41;2.47;;;1.20;;
56670;SDS011;42545;50.054;8.306;2023-04-26T14:54:08;4.68;;;1.45;;
56670;SDS011;42545;50.054;8.306;2023-04-26T14:56:36;6.22;;;1.73;;
56670;SDS011;42545;50.054;8.306;2023-04-26T14:59:02;2.58;;;1.02;;
56670;SDS011;42545;50.054;8.306;2023-04-26T15:01:29;2.85;;;1.05;;
56670;SDS011;42545;50.054;8.306;2023-04-26T15:03:56;2.17;;;1.10;;
56670;SDS011;42545;50.054;8.306;2023-04-26T15:06:24;3.00;;;1.13;;
56670;SDS011;42545;50.054;8.306;2023-04-26T15:08:50;1.05;;;0.90;;
56670;SDS011;42545;50.054;8.306;2023-04-26T15:11:17;3.35;;;1.38;;
56670;SDS011;42545;50.054;8.306;2023-04-26T15:13:46;6.95;;;1.90;;
56670;SDS011;42545;50.054;8.306;2023-04-26T15:16:13;1.48;;;1.13;;
56670;SDS011;42545;50.054;8.306;2023-04-26T15:18:40;3.67;;;1.33;;